createdAt,value
2023-03-06T00:01:00.042Z,1.77
2023-03-06T00:03:28.592Z,2.53
2023-03-06T00:05:57.384Z,1.17
2023-03-06T00:08:26.054Z,1.30
2023-03-06T00:10:57.264Z,5.23
2023-03-06T00:13:26.636Z,1.43
2023-03-06T00:15:54.682Z,1.80
2023-03-06T00:18:24.291Z,1.23
2023-03-06T00:20:52.210Z,1.23
2023-03-06T00:23:20.726Z,1.30
2023-03-06T00:25:48.809Z,1.47
2023-03-06T00:28:17.823Z,1.40
2023-03-06T00:30:46.063Z,1.50
2023-03-06T00:33:14.127Z,1.50
2023-03-06T00:35:43.633Z,1.43
2023-03-06T00:38:12.107Z,1.87
2023-03-06T00:40:40.140Z,1.53
2023-03-06T00:43:08.503Z,1.53
2023-03-06T00:45:36.466Z,1.57
2023-03-06T00:48:05.434Z,1.50
2023-03-06T00:50:35.293Z,1.43
2023-03-06T00:53:04.786Z,1.83
2023-03-06T00:55:33.466Z,1.40
2023-03-06T00:58:01.389Z,1.20
2023-03-06T01:00:29.822Z,1.40
2023-03-06T01:02:57.809Z,1.70
2023-03-06T01:05:25.915Z,1.23
2023-03-06T01:07:53.891Z,1.20
2023-03-06T01:10:23.678Z,1.27
2023-03-06T01:12:51.648Z,2.23
2023-03-06T01:15:20.092Z,1.30
2023-03-06T01:17:48.127Z,1.50
2023-03-06T01:20:19.644Z,2.40
2023-03-06T01:22:47.380Z,1.10
2023-03-06T01:25:15.754Z,1.40
2023-03-06T01:27:45.294Z,2.00
2023-03-06T01:30:14.084Z,1.33
2023-03-06T01:32:42.449Z,1.40
2023-03-06T01:35:11.236Z,1.97
2023-03-06T01:37:39.130Z,1.30
2023-03-06T01:40:07.842Z,1.50
2023-03-06T01:42:35.603Z,1.30
2023-03-06T01:45:06.578Z,1.43
2023-03-06T01:47:34.324Z,1.40
2023-03-06T01:50:03.735Z,1.60
2023-03-06T01:52:33.020Z,2.00
2023-03-06T01:55:02.435Z,1.53
2023-03-06T01:57:31.584Z,1.43
2023-03-06T02:00:02.153Z,1.80
2023-03-06T02:02:31.698Z,1.67
2023-03-06T02:04:59.528Z,1.60
2023-03-06T02:07:27.302Z,2.10
2023-03-06T02:09:55.052Z,1.90
2023-03-06T02:12:23.260Z,1.90
2023-03-06T02:14:51.028Z,1.67
2023-03-06T02:17:20.241Z,2.03
2023-03-06T02:19:53.322Z,1.70
2023-03-06T02:22:21.284Z,1.93
2023-03-06T02:24:51.278Z,1.40
2023-03-06T02:27:20.432Z,1.70
2023-03-06T02:29:48.510Z,1.60
2023-03-06T02:32:16.296Z,2.60
2023-03-06T02:34:55.604Z,2.00
2023-03-06T02:37:23.710Z,2.80
2023-03-06T02:39:55.935Z,2.10
2023-03-06T02:42:26.371Z,1.70
2023-03-06T02:44:54.792Z,1.77
2023-03-06T02:47:22.925Z,1.23
2023-03-06T02:49:51.047Z,1.50
2023-03-06T02:52:19.058Z,1.10
2023-03-06T02:54:47.070Z,2.37
2023-03-06T02:57:15.390Z,1.20
2023-03-06T02:59:44.553Z,1.10
2023-03-06T03:02:12.463Z,1.43
2023-03-06T03:04:40.528Z,1.30
2023-03-06T03:07:08.523Z,1.30
2023-03-06T03:09:37.279Z,1.00
2023-03-06T03:12:06.854Z,0.93
2023-03-06T03:14:34.919Z,1.03
2023-03-06T03:17:04.689Z,0.90
2023-03-06T03:19:32.715Z,1.00
2023-03-06T03:22:01.102Z,1.47
2023-03-06T03:24:29.162Z,1.00
2023-03-06T03:26:57.318Z,0.97
2023-03-06T03:29:25.122Z,1.07
2023-03-06T03:31:53.368Z,0.97
2023-03-06T03:34:22.465Z,1.10
2023-03-06T03:36:50.236Z,1.00
2023-03-06T03:39:18.042Z,1.00
2023-03-06T03:41:45.802Z,2.30
2023-03-06T03:44:13.740Z,1.47
2023-03-06T03:46:41.531Z,1.73
2023-03-06T03:49:09.911Z,1.90
2023-03-06T03:51:39.037Z,2.20
2023-03-06T03:54:07.075Z,2.17
2023-03-06T03:56:34.939Z,2.60
2023-03-06T03:59:02.671Z,4.17
2023-03-06T04:01:30.451Z,3.07
2023-03-06T04:03:58.563Z,3.07
2023-03-06T04:06:26.322Z,4.10
2023-03-06T04:08:55.741Z,3.13
2023-03-06T04:11:24.132Z,2.67
2023-03-06T04:13:52.072Z,4.53
2023-03-06T04:16:20.199Z,2.40
2023-03-06T04:18:47.992Z,2.67
2023-03-06T04:21:16.172Z,2.97
2023-03-06T04:23:43.932Z,3.33
2023-03-06T04:26:13.024Z,2.63
2023-03-06T04:28:40.779Z,2.67
2023-03-06T04:31:08.618Z,2.30
2023-03-06T04:33:36.710Z,2.70
2023-03-06T04:36:04.900Z,2.63
2023-03-06T04:38:32.700Z,3.20
2023-03-06T04:41:00.511Z,3.00
2023-03-06T04:43:30.028Z,3.07
2023-03-06T04:45:58.971Z,2.47
2023-03-06T04:48:27.204Z,2.70
2023-03-06T04:50:54.943Z,2.53
2023-03-06T04:53:27.256Z,2.43
2023-03-06T04:55:55.138Z,2.67
2023-03-06T04:58:23.215Z,3.03
2023-03-06T05:00:52.531Z,2.93
2023-03-06T05:03:20.401Z,2.37
2023-03-06T05:05:48.212Z,4.30
2023-03-06T05:08:16.548Z,4.53
2023-03-06T05:10:44.484Z,3.47
2023-03-06T05:13:12.275Z,2.60
2023-03-06T05:15:41.361Z,3.47
2023-03-06T05:18:10.948Z,2.60
2023-03-06T05:20:38.857Z,3.37
2023-03-06T05:23:07.298Z,2.70
2023-03-06T05:25:35.210Z,3.37
2023-03-06T05:28:03.120Z,6.80
2023-03-06T05:30:31.537Z,6.67
2023-03-06T05:32:59.442Z,3.80
2023-03-06T05:35:29.259Z,5.00
2023-03-06T05:37:57.195Z,3.60
2023-03-06T05:40:25.683Z,4.20
2023-03-06T05:42:53.664Z,3.57
2023-03-06T05:45:22.230Z,4.27
2023-03-06T05:47:50.416Z,3.90
2023-03-06T05:50:18.507Z,5.10
2023-03-06T05:52:47.849Z,6.83
2023-03-06T05:55:16.676Z,3.90
2023-03-06T05:57:45.279Z,4.53
2023-03-06T06:00:14.873Z,4.47
2023-03-06T06:02:43.557Z,4.50
2023-03-06T06:05:13.186Z,3.80
2023-03-06T06:07:41.352Z,4.63
2023-03-06T06:10:12.473Z,7.10
2023-03-06T06:12:40.201Z,5.10
2023-03-06T06:15:08.842Z,5.60
2023-03-06T06:17:36.655Z,4.37
2023-03-06T06:20:04.891Z,3.97
2023-03-06T06:22:33.031Z,6.67
2023-03-06T06:25:00.815Z,6.30
2023-03-06T06:27:29.929Z,6.90
2023-03-06T06:29:57.724Z,9.67
2023-03-06T06:32:25.503Z,13.60
2023-03-06T06:34:53.265Z,16.80
2023-03-06T06:37:21.030Z,13.83
2023-03-06T06:39:48.988Z,13.70
2023-03-06T06:42:38.978Z,13.57
2023-03-06T06:45:07.105Z,8.57
2023-03-06T06:47:37.090Z,10.70
2023-03-06T06:50:06.100Z,10.63
2023-03-06T06:52:34.082Z,8.80
2023-03-06T06:55:02.490Z,10.37
2023-03-06T06:57:30.339Z,10.93
2023-03-06T06:59:58.696Z,7.20
2023-03-06T07:02:28.080Z,11.23
2023-03-06T07:05:04.331Z,5.80
2023-03-06T07:07:34.727Z,5.53
2023-03-06T07:10:03.148Z,6.87
2023-03-06T07:12:32.767Z,6.20
2023-03-06T07:15:00.838Z,5.03
2023-03-06T07:17:29.939Z,5.70
2023-03-06T07:19:58.131Z,5.80
2023-03-06T07:22:25.966Z,3.90
2023-03-06T07:24:54.117Z,6.40
2023-03-06T07:27:23.636Z,4.53
2023-03-06T07:29:51.661Z,4.70
2023-03-06T07:32:20.824Z,5.37
2023-03-06T07:34:50.100Z,3.73
2023-03-06T07:37:17.867Z,5.57
2023-03-06T07:39:46.064Z,3.20
2023-03-06T07:42:14.414Z,3.43
2023-03-06T07:44:42.414Z,4.97
2023-03-06T07:47:12.610Z,3.60
2023-03-06T07:49:40.445Z,3.03
2023-03-06T07:52:09.586Z,3.80
2023-03-06T07:54:37.313Z,4.20
2023-03-06T07:57:05.177Z,3.20
2023-03-06T07:59:32.929Z,2.90
2023-03-06T08:02:01.173Z,4.00
2023-03-06T08:04:30.085Z,8.47
2023-03-06T08:06:59.888Z,7.93
2023-03-06T08:09:29.039Z,6.00
2023-03-06T08:11:57.218Z,6.33
2023-03-06T08:14:25.176Z,3.73
2023-03-06T08:16:53.034Z,4.60
2023-03-06T08:19:21.001Z,5.83
2023-03-06T08:21:48.733Z,5.03
2023-03-06T08:24:17.240Z,3.87
2023-03-06T08:26:46.471Z,4.20
2023-03-06T08:29:15.795Z,5.57
2023-03-06T08:31:44.458Z,5.90
2023-03-06T08:34:14.193Z,4.37
2023-03-06T08:36:42.186Z,6.90
2023-03-06T08:39:10.692Z,5.03
2023-03-06T08:41:38.679Z,6.87
2023-03-06T08:44:07.804Z,7.23
2023-03-06T08:46:35.606Z,4.50
2023-03-06T08:49:03.743Z,5.20
2023-03-06T08:51:31.515Z,4.20
2023-03-06T08:53:59.774Z,5.17
2023-03-06T08:56:28.554Z,3.70
2023-03-06T08:58:56.664Z,4.57
2023-03-06T09:01:26.579Z,4.30
2023-03-06T09:03:54.828Z,5.10
2023-03-06T09:06:22.690Z,5.33
2023-03-06T09:08:51.797Z,3.80
2023-03-06T09:11:20.620Z,5.20
2023-03-06T09:13:48.574Z,4.20
2023-03-06T09:16:16.554Z,4.20
2023-03-06T09:18:45.737Z,4.63
2023-03-06T09:21:13.522Z,9.50
2023-03-06T09:23:41.274Z,5.20
2023-03-06T09:26:09.075Z,5.13
2023-03-06T09:28:39.681Z,4.80
2023-03-06T09:31:10.947Z,5.30
2023-03-06T09:33:39.034Z,5.53
2023-03-06T09:36:09.364Z,12.37
2023-03-06T09:38:37.275Z,30.43
2023-03-06T09:43:36.878Z,23.80
2023-03-06T09:46:08.486Z,23.10
2023-03-06T09:48:40.903Z,19.87
2023-03-06T09:51:11.663Z,23.77
2023-03-06T09:53:51.677Z,19.80
2023-03-06T09:56:21.413Z,16.90
2023-03-06T09:58:51.257Z,20.40
2023-03-06T10:01:21.146Z,18.83
2023-03-06T10:03:50.848Z,15.70
2023-03-06T10:06:22.617Z,17.50
2023-03-06T10:08:52.398Z,15.23
2023-03-06T10:11:23.071Z,15.90
2023-03-06T10:13:52.722Z,14.37
2023-03-06T10:16:27.446Z,15.80
2023-03-06T10:18:55.723Z,13.50
2023-03-06T10:21:31.353Z,12.43
2023-03-06T10:24:02.482Z,16.13
2023-03-06T10:26:33.538Z,9.77
2023-03-06T10:29:14.602Z,10.63
2023-03-06T10:31:44.856Z,9.73
2023-03-06T10:34:17.228Z,5.93
2023-03-06T10:36:46.975Z,9.43
2023-03-06T10:39:16.279Z,8.87
2023-03-06T10:41:45.327Z,4.60
2023-03-06T10:44:26.195Z,3.10
2023-03-06T10:46:54.647Z,3.40
2023-03-06T10:49:31.032Z,6.40
2023-03-06T10:52:02.748Z,3.20
2023-03-06T10:54:31.741Z,3.90
2023-03-06T10:56:59.664Z,7.50
2023-03-06T10:59:28.432Z,4.23
2023-03-06T11:01:57.478Z,8.23
2023-03-06T11:04:28.091Z,4.97
2023-03-06T11:07:15.795Z,6.90
2023-03-06T11:09:43.910Z,4.33
2023-03-06T11:12:27.416Z,5.97
2023-03-06T11:15:09.730Z,5.23
2023-03-06T11:17:39.069Z,4.40
2023-03-06T11:20:20.036Z,3.30
2023-03-06T11:22:50.042Z,6.17
2023-03-06T11:25:18.984Z,3.43
2023-03-06T11:27:48.041Z,2.63
2023-03-06T11:30:18.998Z,3.90
2023-03-06T11:32:50.275Z,4.27
2023-03-06T11:35:21.210Z,5.40
2023-03-06T11:37:53.972Z,5.80
2023-03-06T11:40:24.672Z,7.37
2023-03-06T11:42:55.410Z,3.37
2023-03-06T11:45:25.546Z,3.77
2023-03-06T11:47:59.905Z,4.93
2023-03-06T11:50:30.114Z,4.00
2023-03-06T11:52:59.820Z,4.33
2023-03-06T11:55:34.652Z,5.40
2023-03-06T11:58:11.452Z,4.43
2023-03-06T12:00:46.080Z,4.30
2023-03-06T12:03:31.686Z,5.53
2023-03-06T12:06:02.523Z,4.70
2023-03-06T12:08:38.885Z,5.17
2023-03-06T12:11:11.442Z,4.63
2023-03-06T12:14:02.359Z,4.30
2023-03-06T12:16:40.961Z,4.60
2023-03-06T12:19:16.306Z,10.63
2023-03-06T12:21:48.140Z,4.60
2023-03-06T12:24:35.510Z,5.43
2023-03-06T12:27:09.524Z,7.80
2023-03-06T12:29:59.068Z,5.40
2023-03-06T12:32:35.350Z,5.77
2023-03-06T12:35:28.958Z,4.53
2023-03-06T12:38:02.489Z,4.43
2023-03-06T12:40:41.399Z,4.60
2023-03-06T12:43:43.777Z,4.30
2023-03-06T12:46:12.530Z,7.23
2023-03-06T12:48:40.522Z,6.60
2023-03-06T12:51:17.926Z,5.70
2023-03-06T12:53:46.180Z,6.07
2023-03-06T12:56:16.097Z,4.80
2023-03-06T12:58:49.106Z,3.90
2023-03-06T13:01:37.325Z,5.30
2023-03-06T13:04:15.768Z,4.57
2023-03-06T13:06:56.798Z,14.10
2023-03-06T13:09:28.916Z,4.07
2023-03-06T13:12:26.682Z,7.30
2023-03-06T13:14:59.111Z,8.50
2023-03-06T13:17:34.516Z,3.97
2023-03-06T13:20:26.588Z,4.17
2023-03-06T13:22:54.653Z,3.83
2023-03-06T13:25:35.647Z,4.17
2023-03-06T13:28:09.953Z,5.60
2023-03-06T13:30:44.696Z,3.70
2023-03-06T13:33:52.443Z,4.70
2023-03-06T13:36:31.039Z,3.40
2023-03-06T13:39:03.524Z,3.20
2023-03-06T13:41:56.749Z,4.20
2023-03-06T13:44:53.190Z,4.57
2023-03-06T13:48:05.808Z,3.03
2023-03-06T13:50:39.818Z,4.03
2023-03-06T13:53:47.238Z,4.00
2023-03-06T13:56:49.067Z,4.70
2023-03-06T13:59:41.967Z,4.47
2023-03-06T14:02:21.477Z,5.77
2023-03-06T14:04:54.482Z,7.60
2023-03-06T14:07:24.963Z,3.37
2023-03-06T14:09:58.897Z,4.43
2023-03-06T14:12:29.647Z,5.43
2023-03-06T14:14:58.839Z,2.90
2023-03-06T14:17:30.051Z,3.70
2023-03-06T14:19:59.025Z,4.27
2023-03-06T14:22:26.884Z,2.97
2023-03-06T14:24:57.918Z,4.90
2023-03-06T14:27:43.437Z,2.63
2023-03-06T14:30:14.449Z,2.73
2023-03-06T14:32:43.999Z,3.30
2023-03-06T14:35:28.678Z,2.43
2023-03-06T14:37:58.521Z,3.53
2023-03-06T14:40:33.663Z,2.20
2023-03-06T14:43:12.185Z,6.10
2023-03-06T14:45:50.004Z,3.03
2023-03-06T14:48:19.123Z,3.50
2023-03-06T14:50:51.427Z,2.27
2023-03-06T14:53:20.194Z,2.10
2023-03-06T14:55:50.135Z,2.17
2023-03-06T14:58:18.965Z,3.20
2023-03-06T15:00:49.446Z,1.80
2023-03-06T15:03:20.413Z,2.83
2023-03-06T15:05:48.171Z,2.57
2023-03-06T15:08:18.372Z,2.90
2023-03-06T15:10:55.568Z,3.13
2023-03-06T15:13:24.281Z,2.03
2023-03-06T15:15:59.753Z,2.07
2023-03-06T15:18:30.032Z,2.10
2023-03-06T15:21:10.629Z,2.07
2023-03-06T15:23:39.680Z,2.67
2023-03-06T15:26:23.489Z,3.90
2023-03-06T15:29:09.389Z,6.50
2023-03-06T15:31:37.956Z,1.90
2023-03-06T15:34:18.692Z,4.17
2023-03-06T15:36:47.278Z,4.30
2023-03-06T15:39:32.302Z,1.97
2023-03-06T15:42:00.874Z,2.90
2023-03-06T15:44:29.185Z,2.00
2023-03-06T15:47:09.472Z,2.23
2023-03-06T15:49:39.319Z,2.10
2023-03-06T15:52:07.501Z,1.90
2023-03-06T15:54:35.387Z,1.70
2023-03-06T15:57:04.146Z,2.23
2023-03-06T15:59:33.036Z,3.43
2023-03-06T16:02:02.188Z,2.23
2023-03-06T16:04:30.091Z,3.13
2023-03-06T16:06:59.827Z,5.90
2023-03-06T16:09:27.741Z,2.90
2023-03-06T16:11:55.633Z,1.80
2023-03-06T16:14:24.093Z,2.57
2023-03-06T16:16:52.325Z,4.97
2023-03-06T16:19:26.365Z,3.07
2023-03-06T16:21:55.259Z,1.60
2023-03-06T16:24:26.172Z,1.97
2023-03-06T16:26:55.072Z,2.63
2023-03-06T16:29:23.950Z,2.10
2023-03-06T16:31:51.837Z,3.37
2023-03-06T16:34:20.038Z,1.90
2023-03-06T16:36:48.607Z,1.70
2023-03-06T16:39:16.632Z,5.00
2023-03-06T16:41:46.199Z,4.27
2023-03-06T16:44:14.297Z,5.37
2023-03-06T16:46:45.389Z,5.20
2023-03-06T16:49:16.385Z,6.53
2023-03-06T16:51:44.311Z,7.17
2023-03-06T16:54:12.403Z,10.33
2023-03-06T16:56:40.306Z,9.03
2023-03-06T16:59:12.126Z,7.50
2023-03-06T17:01:42.586Z,10.00
2023-03-06T17:04:10.494Z,8.23
2023-03-06T17:06:38.372Z,9.97
2023-03-06T17:09:06.166Z,7.30
2023-03-06T17:11:34.275Z,7.60
2023-03-06T17:14:02.784Z,7.97
2023-03-06T17:16:32.317Z,8.70
2023-03-06T17:19:02.258Z,7.60
2023-03-06T17:21:30.305Z,9.50
2023-03-06T17:23:58.412Z,8.53
2023-03-06T17:26:26.311Z,10.50
2023-03-06T17:28:54.256Z,10.13
2023-03-06T17:31:22.671Z,7.10
2023-03-06T17:33:54.175Z,8.10
2023-03-06T17:36:22.030Z,9.90
2023-03-06T17:38:50.008Z,6.67
2023-03-06T17:41:17.908Z,7.90
2023-03-06T17:43:46.124Z,7.63
2023-03-06T17:46:14.211Z,10.17
2023-03-06T17:48:42.065Z,7.17
2023-03-06T17:51:11.144Z,8.60
2023-03-06T17:53:39.403Z,8.30
2023-03-06T17:56:08.339Z,6.00
2023-03-06T17:58:36.380Z,6.40
2023-03-06T18:01:11.088Z,7.07
2023-03-06T18:03:39.080Z,5.50
2023-03-06T18:06:09.464Z,8.10
2023-03-06T18:08:38.675Z,4.77
2023-03-06T18:11:07.587Z,4.30
2023-03-06T18:13:35.665Z,7.53
2023-03-06T18:16:04.156Z,5.80
2023-03-06T18:18:31.878Z,5.13
2023-03-06T18:21:01.814Z,4.93
2023-03-06T18:23:29.783Z,4.30
2023-03-06T18:26:09.777Z,4.73
2023-03-06T18:28:37.597Z,4.23
2023-03-06T18:31:08.952Z,4.33
2023-03-06T18:33:36.747Z,5.60
2023-03-06T18:36:05.377Z,4.23
2023-03-06T18:38:33.045Z,4.90
2023-03-06T18:41:00.752Z,7.03
2023-03-06T18:43:30.021Z,5.47
2023-03-06T18:45:58.061Z,4.03
2023-03-06T18:48:25.866Z,6.20
2023-03-06T18:50:53.543Z,4.13
2023-03-06T18:53:21.368Z,3.53
2023-03-06T18:55:49.309Z,3.50
2023-03-06T18:58:17.159Z,3.70
2023-03-06T19:00:49.556Z,4.00
2023-03-06T19:03:17.678Z,3.50
2023-03-06T19:05:47.182Z,3.67
2023-03-06T19:08:16.437Z,5.43
2023-03-06T19:10:46.260Z,5.20
2023-03-06T19:13:14.465Z,4.73
2023-03-06T19:15:46.554Z,4.77
2023-03-06T19:18:17.098Z,3.27
2023-03-06T19:20:45.153Z,4.70
2023-03-06T19:23:13.561Z,5.53
2023-03-06T19:25:41.552Z,5.07
2023-03-06T19:28:09.473Z,3.40
2023-03-06T19:30:40.756Z,4.63
2023-03-06T19:33:08.781Z,3.87
2023-03-06T19:35:38.191Z,14.57
2023-03-06T19:38:06.136Z,9.17
2023-03-06T19:40:35.369Z,4.67
2023-03-06T19:43:03.340Z,4.33
2023-03-06T19:45:31.765Z,10.80
2023-03-06T19:48:00.904Z,10.80
2023-03-06T19:50:29.662Z,5.53
2023-03-06T19:52:59.138Z,4.50
2023-03-06T19:55:28.667Z,6.70
2023-03-06T19:57:56.781Z,4.00
2023-03-06T20:00:25.140Z,9.53
2023-03-06T20:02:53.170Z,8.23
2023-03-06T20:05:21.197Z,5.10
2023-03-06T20:07:49.170Z,10.73
2023-03-06T20:10:18.869Z,2.60
2023-03-06T20:12:47.029Z,2.83
2023-03-06T20:15:14.866Z,4.90
2023-03-06T20:17:43.026Z,3.83
2023-03-06T20:20:12.559Z,5.00
2023-03-06T20:22:40.719Z,3.40
2023-03-06T20:25:09.228Z,2.97
2023-03-06T20:27:38.686Z,2.63
2023-03-06T20:30:08.150Z,2.63
2023-03-06T20:32:36.123Z,6.20
2023-03-06T20:35:04.075Z,2.67
2023-03-06T20:37:31.766Z,3.27
2023-03-06T20:39:59.644Z,3.10
2023-03-06T20:42:28.303Z,2.87
2023-03-06T20:44:57.966Z,3.50
2023-03-06T20:47:25.981Z,2.83
2023-03-06T20:49:56.897Z,3.50
2023-03-06T20:52:24.911Z,2.93
2023-03-06T20:54:52.918Z,3.00
2023-03-06T20:57:20.985Z,4.83
2023-03-06T20:59:49.349Z,4.37
2023-03-06T21:02:18.857Z,5.63
2023-03-06T21:04:46.788Z,4.30
2023-03-06T21:07:14.667Z,4.90
2023-03-06T21:09:42.963Z,4.40
2023-03-06T21:12:11.005Z,5.37
2023-03-06T21:14:39.342Z,4.87
2023-03-06T21:17:07.318Z,5.30
2023-03-06T21:19:37.525Z,8.27
2023-03-06T21:22:05.555Z,4.77
2023-03-06T21:24:33.589Z,5.70
2023-03-06T21:27:01.589Z,8.30
2023-03-06T21:29:29.597Z,6.47
2023-03-06T21:31:57.571Z,6.70
2023-03-06T21:34:25.533Z,7.73
2023-03-06T21:36:54.916Z,5.43
2023-03-06T21:39:23.021Z,7.13
2023-03-06T21:41:51.050Z,6.40
2023-03-06T21:44:19.709Z,7.17
2023-03-06T21:46:47.794Z,6.07
2023-03-06T21:49:15.664Z,5.67
2023-03-06T21:51:44.340Z,6.70
2023-03-06T21:54:13.468Z,6.27
2023-03-06T21:56:41.845Z,7.73
2023-03-06T21:59:09.833Z,8.20
2023-03-06T22:01:37.813Z,8.47
2023-03-06T22:04:05.827Z,7.97
2023-03-06T22:06:34.345Z,9.27
2023-03-06T22:09:02.388Z,12.20
2023-03-06T22:11:34.567Z,7.70
2023-03-06T22:14:02.603Z,8.20
2023-03-06T22:16:30.683Z,9.20
2023-03-06T22:18:58.624Z,11.43
2023-03-06T22:21:26.645Z,9.30
2023-03-06T22:23:55.279Z,9.70
2023-03-06T22:26:23.290Z,10.03
2023-03-06T22:28:53.084Z,10.93
2023-03-06T22:31:23.711Z,10.07
2023-03-06T22:33:52.054Z,11.77
2023-03-06T22:36:19.970Z,11.87
2023-03-06T22:38:48.053Z,10.90
2023-03-06T22:41:16.726Z,11.97
2023-03-06T22:43:44.771Z,13.33
2023-03-06T22:46:15.495Z,12.47
2023-03-06T22:48:43.565Z,12.23
2023-03-06T22:51:12.174Z,14.33
2023-03-06T22:53:40.288Z,14.03
2023-03-06T22:56:08.967Z,12.97
2023-03-06T22:58:37.524Z,14.03
2023-03-06T23:01:07.738Z,14.17
2023-03-06T23:03:37.993Z,15.20
2023-03-06T23:06:10.351Z,17.40
2023-03-06T23:08:38.373Z,16.07
2023-03-06T23:11:08.988Z,16.10
2023-03-06T23:13:36.851Z,17.23
2023-03-06T23:16:05.112Z,16.07
2023-03-06T23:18:36.115Z,19.20
2023-03-06T23:21:08.765Z,16.83
2023-03-06T23:23:36.644Z,16.70
2023-03-06T23:26:04.596Z,16.10
2023-03-06T23:28:32.604Z,17.70
2023-03-06T23:31:01.004Z,14.97
2023-03-06T23:33:28.985Z,18.43
2023-03-06T23:35:57.130Z,20.07
2023-03-06T23:38:26.616Z,16.07
2023-03-06T23:40:54.582Z,17.90
2023-03-06T23:43:22.994Z,14.80
2023-03-06T23:45:54.607Z,16.07
2023-03-06T23:48:22.567Z,19.00
2023-03-06T23:50:50.324Z,16.53
2023-03-06T23:53:18.235Z,14.17
2023-03-06T23:55:48.936Z,17.87
2023-03-06T23:58:17.339Z,16.87
